createdAt,value
2023-12-05T00:00:30.765Z,61.87
2023-12-05T00:02:58.408Z,61.84
2023-12-05T00:05:25.191Z,61.93
2023-12-05T00:07:52.001Z,61.24
2023-12-05T00:10:18.761Z,61.23
2023-12-05T00:12:45.589Z,61.78
2023-12-05T00:15:12.424Z,61.50
2023-12-05T00:17:39.297Z,61.14
2023-12-05T00:20:07.209Z,62.05
2023-12-05T00:22:34.784Z,61.17
2023-12-05T00:25:01.607Z,61.39
2023-12-05T00:27:28.494Z,61.01
2023-12-05T00:29:55.598Z,61.37
2023-12-05T00:32:22.383Z,61.54
2023-12-05T00:34:49.293Z,61.62
2023-12-05T00:37:16.212Z,61.20
2023-12-05T00:39:42.978Z,61.16
2023-12-05T00:42:09.905Z,62.38
2023-12-05T00:44:36.769Z,62.08
2023-12-05T00:47:06.214Z,61.23
2023-12-05T00:49:36.682Z,61.62
2023-12-05T00:52:03.849Z,61.57
2023-12-05T00:54:31.020Z,61.95
2023-12-05T00:56:57.765Z,62.00
2023-12-05T00:59:24.846Z,62.32
2023-12-05T01:01:51.819Z,62.39
2023-12-05T01:04:19.311Z,61.98
2023-12-05T01:06:46.240Z,61.84
2023-12-05T01:09:13.414Z,62.03
2023-12-05T01:11:40.849Z,62.21
2023-12-05T01:14:07.662Z,61.81
2023-12-05T01:16:35.205Z,61.44
2023-12-05T01:19:02.360Z,61.11
2023-12-05T01:21:29.210Z,61.99
2023-12-05T01:23:56.016Z,61.44
2023-12-05T01:26:22.782Z,61.36
2023-12-05T01:28:49.855Z,60.97
2023-12-05T01:31:17.725Z,61.27
2023-12-05T01:33:45.019Z,60.88
2023-12-05T01:36:12.521Z,60.77
2023-12-05T01:38:40.587Z,61.40
2023-12-05T01:41:08.709Z,60.91
2023-12-05T01:43:35.549Z,61.45
2023-12-05T01:46:03.381Z,60.94
2023-12-05T01:48:33.614Z,61.37
2023-12-05T01:51:03.689Z,61.09
2023-12-05T01:53:31.830Z,61.54
2023-12-05T01:56:00.497Z,60.92
2023-12-05T01:58:28.281Z,61.26
2023-12-05T02:00:55.226Z,61.80
2023-12-05T02:03:22.208Z,61.43
2023-12-05T02:05:49.818Z,61.78
2023-12-05T02:08:19.504Z,61.76
2023-12-05T02:10:46.360Z,61.56
2023-12-05T02:13:13.264Z,61.24
2023-12-05T02:15:40.198Z,61.48
2023-12-05T02:18:19.927Z,61.58
2023-12-05T02:20:58.875Z,61.93
2023-12-05T02:23:59.338Z,61.52
2023-12-05T02:26:42.994Z,61.17
2023-12-05T02:29:09.766Z,61.54
2023-12-05T02:31:36.507Z,61.62
2023-12-05T02:34:03.478Z,61.35
2023-12-05T02:36:46.366Z,61.14
2023-12-05T02:39:18.942Z,60.90
2023-12-05T02:41:53.235Z,61.14
2023-12-05T02:44:23.867Z,61.56
2023-12-05T02:46:52.232Z,60.87
2023-12-05T02:49:19.442Z,61.47
2023-12-05T02:51:46.662Z,61.92
2023-12-05T02:54:13.508Z,61.84
2023-12-05T02:56:41.307Z,61.38
2023-12-05T02:59:08.113Z,62.33
2023-12-05T03:01:40.506Z,61.55
2023-12-05T03:04:07.753Z,62.36
2023-12-05T03:06:34.764Z,61.72
2023-12-05T03:09:04.731Z,62.40
2023-12-05T03:11:32.337Z,62.30
2023-12-05T03:14:00.323Z,61.95
2023-12-05T03:16:28.115Z,61.75
2023-12-05T03:18:55.292Z,61.80
2023-12-05T03:21:22.680Z,61.74
2023-12-05T03:23:49.616Z,61.87
2023-12-05T03:26:23.342Z,61.53
2023-12-05T03:28:51.114Z,60.75
2023-12-05T03:31:18.651Z,60.83
2023-12-05T03:33:45.585Z,60.69
2023-12-05T03:36:13.412Z,61.63
2023-12-05T03:38:44.028Z,61.26
2023-12-05T03:41:19.835Z,60.96
2023-12-05T03:43:46.664Z,60.96
2023-12-05T03:46:13.947Z,60.59
2023-12-05T03:48:42.734Z,60.28
2023-12-05T03:51:09.515Z,60.46
2023-12-05T03:53:36.408Z,60.52
2023-12-05T03:56:03.220Z,60.50
2023-12-05T03:58:30.053Z,60.54
2023-12-05T04:00:56.981Z,60.67
2023-12-05T04:03:24.434Z,60.32
2023-12-05T04:05:51.368Z,60.62
2023-12-05T04:08:18.147Z,61.49
2023-12-05T04:10:45.082Z,60.82
2023-12-05T04:13:11.843Z,60.66
2023-12-05T04:15:40.379Z,60.74
2023-12-05T04:18:07.329Z,61.00
2023-12-05T04:20:34.409Z,60.89
2023-12-05T04:23:01.232Z,61.43
2023-12-05T04:25:27.966Z,61.19
2023-12-05T04:27:54.804Z,60.82
2023-12-05T04:30:23.106Z,60.29
2023-12-05T04:32:50.086Z,60.30
2023-12-05T04:35:16.935Z,60.86
2023-12-05T04:37:44.024Z,60.74
2023-12-05T04:40:11.132Z,60.43
2023-12-05T04:42:38.650Z,60.94
2023-12-05T04:45:06.102Z,60.74
2023-12-05T04:47:33.432Z,60.87
2023-12-05T04:50:00.268Z,61.14
2023-12-05T04:52:27.414Z,60.45
2023-12-05T04:54:54.180Z,60.79
2023-12-05T04:57:20.983Z,60.67
2023-12-05T04:59:47.981Z,60.78
2023-12-05T05:02:14.946Z,61.26
2023-12-05T05:04:42.195Z,60.82
2023-12-05T05:07:09.209Z,61.30
2023-12-05T05:09:37.657Z,61.34
2023-12-05T05:12:05.075Z,61.21
2023-12-05T05:14:31.763Z,61.00
2023-12-05T05:16:59.006Z,61.38
2023-12-05T05:19:26.016Z,60.84
2023-12-05T05:21:52.882Z,60.79
2023-12-05T05:24:19.727Z,61.56
2023-12-05T05:26:46.507Z,61.43
2023-12-05T05:29:13.346Z,60.95
2023-12-05T05:31:40.215Z,61.96
2023-12-05T05:34:07.116Z,60.97
2023-12-05T05:36:34.165Z,61.39
2023-12-05T05:39:01.992Z,61.32
2023-12-05T05:41:29.109Z,61.10
2023-12-05T05:43:56.395Z,61.97
2023-12-05T05:46:23.174Z,61.62
2023-12-05T05:48:50.012Z,61.54
2023-12-05T05:51:16.952Z,61.14
2023-12-05T05:53:43.723Z,61.47
2023-12-05T05:56:11.060Z,61.18
2023-12-05T05:58:37.861Z,62.00
2023-12-05T06:01:05.208Z,61.65
2023-12-05T06:03:32.804Z,61.29
2023-12-05T06:06:02.836Z,61.53
2023-12-05T06:08:30.866Z,61.01
2023-12-05T06:10:57.621Z,60.89
2023-12-05T06:13:24.974Z,61.03
2023-12-05T06:15:52.375Z,60.77
2023-12-05T06:18:19.188Z,61.17
2023-12-05T06:20:47.752Z,61.18
2023-12-05T06:23:14.480Z,60.92
2023-12-05T06:25:41.341Z,60.84
2023-12-05T06:28:08.193Z,60.41
2023-12-05T06:30:35.170Z,60.08
2023-12-05T06:33:02.176Z,60.43
2023-12-05T06:35:29.103Z,60.29
2023-12-05T06:37:55.849Z,59.94
2023-12-05T06:40:22.604Z,59.64
2023-12-05T06:42:50.206Z,59.67
2023-12-05T06:45:17.169Z,59.41
2023-12-05T06:47:44.192Z,59.57
2023-12-05T06:50:12.936Z,59.44
2023-12-05T06:52:41.692Z,59.46
2023-12-05T06:55:09.573Z,59.59
2023-12-05T06:57:36.648Z,59.73
2023-12-05T07:00:05.338Z,59.97
2023-12-05T07:02:32.199Z,59.14
2023-12-05T07:05:00.132Z,59.79
2023-12-05T07:07:27.250Z,60.10
2023-12-05T07:09:54.081Z,60.12
2023-12-05T07:12:20.978Z,60.54
2023-12-05T07:14:47.909Z,60.35
2023-12-05T07:17:14.684Z,60.15
2023-12-05T07:19:41.478Z,60.58
2023-12-05T07:22:08.528Z,60.45
2023-12-05T07:24:35.272Z,60.11
2023-12-05T07:27:02.258Z,60.19
2023-12-05T07:29:29.422Z,60.08
2023-12-05T07:31:56.596Z,59.61
2023-12-05T07:34:23.471Z,59.98
2023-12-05T07:36:50.263Z,59.55
2023-12-05T07:39:17.163Z,59.40
2023-12-05T07:41:44.279Z,59.09
2023-12-05T07:44:11.991Z,58.81
2023-12-05T07:46:43.041Z,58.92
2023-12-05T07:49:11.143Z,58.90
2023-12-05T07:51:39.007Z,58.94
2023-12-05T07:54:06.732Z,58.65
2023-12-05T07:56:33.782Z,59.31
2023-12-05T07:59:00.830Z,58.92
2023-12-05T08:01:28.088Z,58.89
2023-12-05T08:03:55.160Z,58.68
2023-12-05T08:06:22.572Z,58.91
2023-12-05T08:08:49.450Z,58.96
2023-12-05T08:11:16.514Z,59.05
2023-12-05T08:13:43.302Z,58.72
2023-12-05T08:16:10.369Z,58.22
2023-12-05T08:18:37.616Z,57.76
2023-12-05T08:21:05.026Z,57.57
2023-12-05T08:23:31.821Z,57.40
2023-12-05T08:25:58.551Z,57.20
2023-12-05T08:28:25.721Z,56.97
2023-12-05T08:30:52.487Z,56.76
2023-12-05T08:33:19.848Z,56.54
2023-12-05T08:35:47.485Z,55.95
2023-12-05T08:38:14.229Z,55.86
2023-12-05T08:40:40.949Z,55.70
2023-12-05T08:43:07.767Z,55.50
2023-12-05T08:45:34.613Z,55.34
2023-12-05T08:48:01.506Z,55.10
2023-12-05T08:50:28.535Z,55.48
2023-12-05T08:52:56.147Z,54.84
2023-12-05T08:55:22.992Z,55.03
2023-12-05T08:57:49.898Z,54.97
2023-12-05T09:00:17.167Z,54.75
2023-12-05T09:02:44.021Z,54.68
2023-12-05T09:05:10.865Z,54.89
2023-12-05T09:07:39.273Z,54.45
2023-12-05T09:10:06.892Z,54.47
2023-12-05T09:12:33.874Z,54.36
2023-12-05T09:15:00.778Z,54.62
2023-12-05T09:17:27.835Z,54.44
2023-12-05T09:19:54.629Z,54.42
2023-12-05T09:22:21.979Z,54.36
2023-12-05T09:24:48.905Z,54.23
2023-12-05T09:27:15.681Z,53.94
2023-12-05T09:29:50.038Z,53.71
2023-12-05T09:32:18.940Z,53.79
2023-12-05T09:34:46.364Z,53.60
2023-12-05T09:37:14.393Z,53.66
2023-12-05T09:39:41.674Z,53.52
2023-12-05T09:42:13.613Z,53.54
2023-12-05T09:44:45.607Z,53.61
2023-12-05T09:47:16.220Z,53.56
2023-12-05T09:49:43.731Z,53.31
2023-12-05T09:52:12.102Z,53.02
2023-12-05T09:54:43.764Z,53.36
2023-12-05T09:57:13.457Z,53.19
2023-12-05T09:59:40.443Z,52.89
2023-12-05T10:02:08.371Z,52.72
2023-12-05T10:04:46.665Z,52.82
2023-12-05T10:07:14.624Z,52.45
2023-12-05T10:09:45.490Z,52.73
2023-12-05T10:12:13.260Z,52.88
2023-12-05T10:14:40.770Z,52.67
2023-12-05T10:17:09.063Z,52.68
2023-12-05T10:19:37.074Z,52.69
2023-12-05T10:22:05.120Z,52.76
2023-12-05T10:24:46.904Z,52.48
2023-12-05T10:27:14.122Z,52.30
2023-12-05T10:29:42.691Z,52.14
2023-12-05T10:32:11.219Z,51.99
2023-12-05T10:34:55.141Z,51.83
2023-12-05T10:37:26.650Z,51.68
2023-12-05T10:40:00.738Z,51.76
2023-12-05T10:42:30.158Z,51.49
2023-12-05T10:45:20.260Z,51.45
2023-12-05T10:47:47.148Z,51.45
2023-12-05T10:50:14.283Z,51.73
2023-12-05T10:52:41.111Z,51.96
2023-12-05T10:55:08.495Z,51.38
2023-12-05T10:57:35.852Z,51.57
2023-12-05T11:00:07.754Z,51.68
2023-12-05T11:02:37.632Z,51.66
2023-12-05T11:05:05.693Z,51.70
2023-12-05T11:07:32.606Z,51.51
2023-12-05T11:09:59.501Z,51.46
2023-12-05T11:12:26.914Z,51.56
2023-12-05T11:14:58.440Z,51.39
2023-12-05T11:17:40.367Z,51.33
2023-12-05T11:20:31.610Z,51.43
2023-12-05T11:23:04.256Z,51.10
2023-12-05T11:25:34.035Z,51.52
2023-12-05T11:28:43.780Z,50.87
2023-12-05T11:31:26.240Z,51.16
2023-12-05T11:34:08.128Z,51.20
2023-12-05T11:37:00.301Z,50.98
2023-12-05T11:39:27.841Z,51.04
2023-12-05T11:42:15.709Z,50.92
2023-12-05T11:44:43.576Z,51.08
2023-12-05T11:47:24.484Z,50.76
2023-12-05T11:49:57.713Z,50.55
2023-12-05T11:52:28.542Z,50.63
2023-12-05T11:54:56.309Z,50.54
2023-12-05T11:57:25.422Z,50.55
2023-12-05T11:59:53.702Z,50.68
2023-12-05T12:02:40.877Z,50.42
2023-12-05T12:05:10.876Z,50.44
2023-12-05T12:07:53.815Z,50.43
2023-12-05T12:10:21.350Z,50.40
2023-12-05T12:12:48.335Z,50.39
2023-12-05T12:15:20.468Z,50.49
2023-12-05T12:17:47.365Z,50.43
2023-12-05T12:20:18.771Z,50.49
2023-12-05T12:22:50.670Z,50.61
2023-12-05T12:25:18.876Z,50.40
2023-12-05T12:27:46.015Z,50.37
2023-12-05T12:30:19.721Z,50.31
2023-12-05T12:32:55.468Z,50.17
2023-12-05T12:35:23.672Z,50.26
2023-12-05T12:37:54.783Z,50.19
2023-12-05T12:40:23.103Z,50.34
2023-12-05T12:42:56.801Z,50.16
2023-12-05T12:45:26.658Z,50.45
2023-12-05T12:47:53.957Z,50.55
2023-12-05T12:50:21.176Z,50.36
2023-12-05T12:52:49.749Z,50.17
2023-12-05T12:55:17.997Z,49.94
2023-12-05T12:57:45.303Z,49.74
2023-12-05T13:00:31.439Z,49.57
2023-12-05T13:03:02.136Z,49.72
2023-12-05T13:05:34.212Z,49.40
2023-12-05T13:08:01.634Z,49.67
2023-12-05T13:10:32.227Z,49.69
2023-12-05T13:13:00.390Z,49.30
2023-12-05T13:15:29.185Z,49.43
2023-12-05T13:18:05.020Z,49.27
2023-12-05T13:20:33.245Z,49.26
2023-12-05T13:23:01.748Z,48.94
2023-12-05T13:25:35.169Z,49.33
2023-12-05T13:28:06.790Z,49.29
2023-12-05T13:30:35.121Z,49.18
2023-12-05T13:33:02.665Z,49.15
2023-12-05T13:35:29.543Z,48.99
2023-12-05T13:37:56.609Z,49.09
2023-12-05T13:40:23.404Z,49.23
2023-12-05T13:42:50.201Z,48.94
2023-12-05T13:45:20.696Z,50.25
2023-12-05T13:47:48.557Z,49.95
2023-12-05T13:50:15.350Z,50.29
2023-12-05T13:52:42.219Z,50.25
2023-12-05T13:55:09.160Z,50.53
2023-12-05T13:57:39.398Z,50.32
2023-12-05T14:00:06.999Z,50.49
2023-12-05T14:02:34.620Z,50.89
2023-12-05T14:05:01.615Z,50.67
2023-12-05T14:07:29.203Z,50.73
2023-12-05T14:09:56.624Z,50.55
2023-12-05T14:12:24.047Z,50.45
2023-12-05T14:14:56.813Z,50.94
2023-12-05T14:17:23.723Z,50.73
2023-12-05T14:19:52.137Z,50.74
2023-12-05T14:22:19.182Z,51.18
2023-12-05T14:24:46.171Z,51.15
2023-12-05T14:27:13.069Z,51.13
2023-12-05T14:29:39.801Z,51.56
2023-12-05T14:32:07.717Z,51.15
2023-12-05T14:34:34.487Z,51.87
2023-12-05T14:37:01.824Z,51.92
2023-12-05T14:39:28.621Z,51.52
2023-12-05T14:41:55.592Z,50.92
2023-12-05T14:44:22.397Z,51.78
2023-12-05T14:46:49.326Z,51.12
2023-12-05T14:49:17.578Z,51.94
2023-12-05T14:51:44.822Z,51.92
2023-12-05T14:54:11.634Z,51.61
2023-12-05T14:56:39.894Z,52.09
2023-12-05T14:59:06.985Z,51.93
2023-12-05T15:01:34.031Z,52.75
2023-12-05T15:04:00.962Z,53.27
2023-12-05T15:06:27.815Z,53.13
2023-12-05T15:08:56.602Z,53.72
2023-12-05T15:11:27.146Z,53.67
2023-12-05T15:13:54.023Z,53.56
2023-12-05T15:16:21.226Z,54.01
2023-12-05T15:18:48.208Z,54.01
2023-12-05T15:21:15.834Z,54.16
2023-12-05T15:23:52.121Z,53.85
2023-12-05T15:26:19.824Z,54.00
2023-12-05T15:28:48.332Z,54.15
2023-12-05T15:31:19.512Z,54.39
2023-12-05T15:33:46.516Z,54.09
2023-12-05T15:36:14.136Z,54.44
2023-12-05T15:38:43.723Z,54.37
2023-12-05T15:41:14.796Z,54.60
2023-12-05T15:43:43.169Z,54.06
2023-12-05T15:46:09.999Z,54.97
2023-12-05T15:48:44.577Z,54.51
2023-12-05T15:51:13.754Z,54.58
2023-12-05T15:53:41.652Z,54.71
2023-12-05T15:56:09.438Z,55.11
2023-12-05T15:58:36.246Z,54.58
2023-12-05T16:01:03.311Z,54.58
2023-12-05T16:03:30.574Z,54.64
2023-12-05T16:05:57.336Z,54.72
2023-12-05T16:08:24.478Z,54.24
2023-12-05T16:10:53.659Z,54.43
2023-12-05T16:13:21.338Z,54.63
2023-12-05T16:15:49.237Z,54.81
2023-12-05T16:18:16.098Z,54.92
2023-12-05T16:20:43.016Z,54.70
2023-12-05T16:23:09.961Z,54.82
2023-12-05T16:25:36.875Z,54.84
2023-12-05T16:28:03.860Z,55.00
2023-12-05T16:30:30.711Z,55.21
2023-12-05T16:32:57.587Z,55.30
2023-12-05T16:35:24.568Z,55.00
2023-12-05T16:37:51.343Z,55.12
2023-12-05T16:40:18.156Z,55.08
2023-12-05T16:42:45.024Z,54.94
2023-12-05T16:45:12.229Z,55.06
2023-12-05T16:47:41.003Z,54.80
2023-12-05T16:50:08.363Z,54.97
2023-12-05T16:52:35.223Z,54.69
2023-12-05T16:55:02.329Z,54.96
2023-12-05T16:57:30.144Z,55.00
2023-12-05T16:59:57.286Z,54.75
2023-12-05T17:02:24.221Z,54.97
2023-12-05T17:04:52.462Z,54.99
2023-12-05T17:07:20.019Z,55.04
2023-12-05T17:09:47.503Z,55.01
2023-12-05T17:12:15.742Z,55.17
2023-12-05T17:14:42.560Z,55.25
2023-12-05T17:17:09.393Z,55.04
2023-12-05T17:19:36.603Z,54.66
2023-12-05T17:22:05.160Z,55.07
2023-12-05T17:24:32.022Z,54.81
2023-12-05T17:26:58.864Z,54.93
2023-12-05T17:29:25.602Z,54.72
2023-12-05T17:31:52.353Z,54.81
2023-12-05T17:34:19.276Z,54.92
2023-12-05T17:36:46.148Z,54.61
2023-12-05T17:39:12.979Z,54.79
2023-12-05T17:41:39.807Z,55.03
2023-12-05T17:44:07.086Z,54.94
2023-12-05T17:46:33.971Z,54.70
2023-12-05T17:49:00.903Z,55.08
2023-12-05T17:51:28.170Z,54.84
2023-12-05T17:53:55.022Z,54.96
2023-12-05T17:56:21.790Z,55.00
2023-12-05T17:58:49.812Z,54.80
2023-12-05T18:01:17.180Z,55.25
2023-12-05T18:03:44.442Z,54.99
2023-12-05T18:06:12.591Z,54.98
2023-12-05T18:08:41.815Z,55.07
2023-12-05T18:11:09.919Z,55.52
2023-12-05T18:13:38.028Z,55.25
2023-12-05T18:16:06.600Z,55.12
2023-12-05T18:18:33.574Z,55.33
2023-12-05T18:21:00.572Z,54.99
2023-12-05T18:23:27.374Z,54.78
2023-12-05T18:25:55.546Z,54.91
2023-12-05T18:28:22.333Z,55.24
2023-12-05T18:30:49.157Z,55.23
2023-12-05T18:33:16.120Z,55.38
2023-12-05T18:35:43.637Z,55.49
2023-12-05T18:38:11.488Z,54.92
2023-12-05T18:40:38.273Z,55.47
2023-12-05T18:43:05.248Z,55.31
2023-12-05T18:45:33.174Z,55.27
2023-12-05T18:48:00.354Z,55.47
2023-12-05T18:50:27.204Z,55.00
2023-12-05T18:52:54.032Z,55.56
2023-12-05T18:55:21.202Z,55.37
2023-12-05T18:57:49.159Z,55.15
2023-12-05T19:00:16.493Z,55.27
2023-12-05T19:02:43.477Z,54.84
2023-12-05T19:05:10.268Z,55.03
2023-12-05T19:07:37.111Z,55.12
2023-12-05T19:10:04.443Z,55.06
2023-12-05T19:12:31.395Z,55.17
2023-12-05T19:14:59.028Z,54.87
2023-12-05T19:17:28.126Z,55.00
2023-12-05T19:19:55.013Z,54.83
2023-12-05T19:22:22.186Z,54.96
2023-12-05T19:24:49.266Z,54.93
2023-12-05T19:31:00.553Z,55.72
2023-12-05T19:33:27.596Z,55.17
2023-12-05T19:35:54.537Z,55.50
2023-12-05T19:38:21.608Z,55.41
2023-12-05T19:40:49.227Z,55.60
2023-12-05T19:43:16.269Z,55.32
2023-12-05T19:45:43.317Z,55.66
2023-12-05T19:48:15.311Z,55.53
2023-12-05T19:50:42.491Z,55.48
2023-12-05T19:53:09.338Z,55.50
2023-12-05T19:55:36.684Z,55.15
2023-12-05T19:58:07.149Z,55.27
2023-12-05T20:00:34.558Z,54.83
2023-12-05T20:03:02.634Z,55.28
2023-12-05T20:05:29.520Z,55.32
2023-12-05T20:07:56.324Z,55.03
2023-12-05T20:10:24.293Z,54.79
2023-12-05T20:12:51.176Z,55.17
2023-12-05T20:15:18.689Z,55.39
2023-12-05T20:17:46.275Z,55.55
2023-12-05T20:20:14.538Z,55.36
2023-12-05T20:22:41.826Z,55.33
2023-12-05T20:25:08.915Z,55.56
2023-12-05T20:27:36.451Z,55.52
2023-12-05T20:30:04.339Z,55.25
2023-12-05T20:32:31.052Z,55.13
2023-12-05T20:34:57.948Z,55.19
2023-12-05T20:37:24.686Z,55.46
2023-12-05T20:40:35.886Z,55.46
2023-12-05T20:43:02.763Z,55.53
2023-12-05T20:45:30.127Z,55.31
2023-12-05T20:47:58.675Z,55.56
2023-12-05T20:50:25.923Z,55.34
2023-12-05T20:53:00.409Z,55.85
2023-12-05T20:55:28.093Z,55.91
2023-12-05T20:58:17.867Z,56.10
2023-12-05T21:00:45.905Z,56.55
2023-12-05T21:03:13.586Z,56.68
2023-12-05T21:05:42.143Z,56.34
2023-12-05T21:08:15.637Z,56.81
2023-12-05T21:10:42.844Z,56.70
2023-12-05T21:13:09.788Z,57.06
2023-12-05T21:15:37.450Z,57.29
2023-12-05T21:18:05.088Z,57.11
2023-12-05T21:20:31.948Z,56.62
2023-12-05T21:22:58.696Z,56.75
2023-12-05T21:25:25.597Z,56.15
2023-12-05T21:27:52.485Z,56.31
2023-12-05T21:31:21.467Z,56.78
2023-12-05T21:33:48.271Z,56.03
2023-12-05T21:36:26.894Z,56.04
2023-12-05T21:38:58.569Z,56.37
2023-12-05T21:41:26.690Z,55.68
2023-12-05T21:43:53.538Z,56.05
2023-12-05T21:46:25.206Z,55.88
2023-12-05T21:48:52.272Z,55.88
2023-12-05T21:51:19.161Z,56.36
2023-12-05T21:53:45.973Z,55.86
2023-12-05T21:56:15.422Z,55.82
2023-12-05T21:58:42.140Z,55.97
2023-12-05T22:01:13.140Z,55.99
2023-12-05T22:03:40.918Z,55.96
2023-12-05T22:06:08.377Z,56.07
2023-12-05T22:08:35.423Z,55.77
2023-12-05T22:11:02.992Z,56.21
2023-12-05T22:13:33.895Z,55.78
2023-12-05T22:16:02.538Z,55.96
2023-12-05T22:18:29.984Z,55.80
2023-12-05T22:20:57.756Z,55.64
2023-12-05T22:23:25.845Z,55.51
2023-12-05T22:25:53.458Z,55.44
2023-12-05T22:28:20.283Z,55.56
2023-12-05T22:30:47.150Z,55.30
2023-12-05T22:33:15.375Z,54.65
2023-12-05T22:35:43.574Z,55.50
2023-12-05T22:38:10.619Z,55.68
2023-12-05T22:40:37.668Z,55.48
2023-12-05T22:43:04.605Z,55.63
2023-12-05T22:45:31.436Z,56.26
2023-12-05T22:47:58.305Z,55.68
2023-12-05T22:50:25.133Z,55.40
2023-12-05T22:52:53.178Z,56.44
2023-12-05T22:55:20.661Z,55.64
2023-12-05T22:57:47.830Z,55.41
2023-12-05T23:00:21.248Z,55.88
2023-12-05T23:02:49.082Z,55.61
2023-12-05T23:05:15.948Z,55.47
2023-12-05T23:07:42.805Z,55.11
2023-12-05T23:10:09.809Z,55.57
2023-12-05T23:12:37.611Z,55.37
2023-12-05T23:15:04.700Z,55.91
2023-12-05T23:17:31.589Z,55.50
2023-12-05T23:19:58.445Z,55.63
2023-12-05T23:22:25.201Z,55.75
2023-12-05T23:24:52.646Z,55.17
2023-12-05T23:27:19.621Z,55.31
2023-12-05T23:29:47.295Z,55.21
2023-12-05T23:32:14.173Z,55.74
2023-12-05T23:34:40.936Z,55.37
2023-12-05T23:37:07.740Z,56.39
2023-12-05T23:39:34.547Z,55.04
2023-12-05T23:42:01.278Z,56.08
2023-12-05T23:44:28.171Z,55.25
2023-12-05T23:46:55.732Z,55.92
2023-12-05T23:49:22.592Z,55.41
2023-12-05T23:51:49.409Z,55.26
2023-12-05T23:54:16.484Z,55.22
2023-12-05T23:56:43.300Z,55.66
2023-12-05T23:59:10.054Z,55.41
